sensor_id;sensor_type;location;lat;lon;timestamp;pressure;altitude;pressure_sealevel;temperature;humidity
55317;BME280;41178;48.956;8.130;2023-03-14T00:00:28;98158.41;;;14.98;49.21
55317;BME280;41178;48.956;8.130;2023-03-14T00:05:29;98080.63;;;16.19;47.64
55317;BME280;41178;48.956;8.130;2023-03-14T00:10:31;98135.22;;;14.48;50.19
55317;BME280;41178;48.956;8.130;2023-03-14T00:15:34;98066.56;;;16.07;47.40
55317;BME280;41178;48.956;8.130;2023-03-14T00:20:36;98125.28;;;12.96;51.29
55317;BME280;41178;48.956;8.130;2023-03-14T00:25:37;98180.91;;;13.41;52.22
55317;BME280;41178;48.956;8.130;2023-03-14T00:30:39;98073.78;;;16.59;47.26
55317;BME280;41178;48.956;8.130;2023-03-14T00:35:40;98179.41;;;13.79;51.84
55317;BME280;41178;48.956;8.130;2023-03-14T00:40:42;98103.56;;;15.09;48.88
55317;BME280;41178;48.956;8.130;2023-03-14T00:45:44;98182.97;;;13.67;51.56
55317;BME280;41178;48.956;8.130;2023-03-14T00:50:46;98074.38;;;16.03;48.65
55317;BME280;41178;48.956;8.130;2023-03-14T00:55:48;98090.00;;;14.99;50.13
55317;BME280;41178;48.956;8.130;2023-03-14T01:00:50;98089.56;;;16.20;48.39
55317;BME280;41178;48.956;8.130;2023-03-14T01:05:52;98081.22;;;15.41;49.33
55317;BME280;41178;48.956;8.130;2023-03-14T01:10:53;98121.69;;;14.65;51.36
55317;BME280;41178;48.956;8.130;2023-03-14T01:16:01;98179.06;;;13.75;51.42
55317;BME280;41178;48.956;8.130;2023-03-14T01:21:09;98156.38;;;14.61;50.61
55317;BME280;41178;48.956;8.130;2023-03-14T01:26:13;98071.63;;;14.91;51.24
55317;BME280;41178;48.956;8.130;2023-03-14T01:31:16;98172.78;;;13.70;52.61
55317;BME280;41178;48.956;8.130;2023-03-14T01:36:18;98095.66;;;14.26;52.11
55317;BME280;41178;48.956;8.130;2023-03-14T01:41:22;98053.22;;;14.83;50.24
55317;BME280;41178;48.956;8.130;2023-03-14T01:46:28;98073.94;;;15.09;49.13
55317;BME280;41178;48.956;8.130;2023-03-14T01:56:36;98050.09;;;16.09;47.63
55317;BME280;41178;48.956;8.130;2023-03-14T02:01:43;98060.31;;;16.75;45.99
55317;BME280;41178;48.956;8.130;2023-03-14T02:12:15;98033.84;;;16.61;46.74
55317;BME280;41178;48.956;8.130;2023-03-14T02:17:18;98012.50;;;15.86;47.00
55317;BME280;41178;48.956;8.130;2023-03-14T02:22:21;98008.69;;;13.59;49.58
55317;BME280;41178;48.956;8.130;2023-03-14T02:27:23;98007.91;;;15.39;48.36
55317;BME280;41178;48.956;8.130;2023-03-14T02:32:26;98052.72;;;14.86;47.72
55317;BME280;41178;48.956;8.130;2023-03-14T02:37:52;98014.59;;;14.99;49.12
55317;BME280;41178;48.956;8.130;2023-03-14T02:42:54;98054.50;;;14.26;49.81
55317;BME280;41178;48.956;8.130;2023-03-14T02:48:01;98000.28;;;14.93;48.53
55317;BME280;41178;48.956;8.130;2023-03-14T02:53:03;98094.38;;;13.39;50.30
55317;BME280;41178;48.956;8.130;2023-03-14T02:58:05;97978.56;;;15.96;47.08
55317;BME280;41178;48.956;8.130;2023-03-14T03:03:07;97998.50;;;14.77;47.51
55317;BME280;41178;48.956;8.130;2023-03-14T03:08:09;97997.88;;;14.97;47.63
55317;BME280;41178;48.956;8.130;2023-03-14T03:13:11;97939.75;;;16.02;45.80
55317;BME280;41178;48.956;8.130;2023-03-14T03:18:12;97925.50;;;15.54;46.42
55317;BME280;41178;48.956;8.130;2023-03-14T03:23:14;97990.31;;;13.73;48.54
55317;BME280;41178;48.956;8.130;2023-03-14T03:28:15;97979.34;;;13.36;48.84
55317;BME280;41178;48.956;8.130;2023-03-14T03:33:17;97890.91;;;15.40;46.32
55317;BME280;41178;48.956;8.130;2023-03-14T03:38:19;97917.06;;;14.59;46.83
55317;BME280;41178;48.956;8.130;2023-03-14T03:43:21;97885.81;;;15.33;46.12
55317;BME280;41178;48.956;8.130;2023-03-14T03:48:23;97961.50;;;13.91;46.40
55317;BME280;41178;48.956;8.130;2023-03-14T03:53:25;97913.25;;;14.88;45.79
55317;BME280;41178;48.956;8.130;2023-03-14T03:58:34;97923.81;;;14.08;45.42
55317;BME280;41178;48.956;8.130;2023-03-14T04:03:36;97895.44;;;14.49;44.65
55317;BME280;41178;48.956;8.130;2023-03-14T04:08:40;97872.44;;;15.06;45.17
55317;BME280;41178;48.956;8.130;2023-03-14T04:13:42;97925.34;;;14.53;45.59
55317;BME280;41178;48.956;8.130;2023-03-14T04:18:44;97716.59;;;11.93;48.12
55317;BME280;41178;48.956;8.130;2023-03-14T04:23:45;97867.78;;;15.44;43.78
55317;BME280;41178;48.956;8.130;2023-03-14T04:28:47;97856.25;;;15.06;44.82
55317;BME280;41178;48.956;8.130;2023-03-14T04:33:49;97881.00;;;13.79;44.82
55317;BME280;41178;48.956;8.130;2023-03-14T04:38:50;97806.66;;;15.55;43.98
55317;BME280;41178;48.956;8.130;2023-03-14T04:43:52;97798.00;;;12.55;47.02
55317;BME280;41178;48.956;8.130;2023-03-14T04:48:53;97883.66;;;14.01;44.49
55317;BME280;41178;48.956;8.130;2023-03-14T04:53:57;97890.19;;;13.61;46.00
55317;BME280;41178;48.956;8.130;2023-03-14T04:58:59;97804.63;;;14.72;45.06
55317;BME280;41178;48.956;8.130;2023-03-14T05:04:00;97885.81;;;14.58;44.62
55317;BME280;41178;48.956;8.130;2023-03-14T05:09:03;97798.53;;;14.82;44.69
55317;BME280;41178;48.956;8.130;2023-03-14T05:14:06;97857.06;;;14.32;44.95
55317;BME280;41178;48.956;8.130;2023-03-14T05:19:08;97858.69;;;13.56;45.96
55317;BME280;41178;48.956;8.130;2023-03-14T05:24:09;97652.41;;;11.53;48.46
55317;BME280;41178;48.956;8.130;2023-03-14T05:29:11;97882.44;;;13.42;46.28
55317;BME280;41178;48.956;8.130;2023-03-14T05:34:13;97750.00;;;15.50;43.57
55317;BME280;41178;48.956;8.130;2023-03-14T05:39:14;97741.09;;;15.34;43.79
55317;BME280;41178;48.956;8.130;2023-03-14T05:44:16;97776.47;;;14.47;44.57
55317;BME280;41178;48.956;8.130;2023-03-14T05:49:18;97731.84;;;15.09;44.45
55317;BME280;41178;48.956;8.130;2023-03-14T05:54:19;97829.09;;;13.78;45.56
55317;BME280;41178;48.956;8.130;2023-03-14T05:59:21;97759.03;;;14.55;44.77
55317;BME280;41178;48.956;8.130;2023-03-14T06:04:24;97779.56;;;14.66;44.52
55317;BME280;41178;48.956;8.130;2023-03-14T06:09:25;97793.44;;;14.15;45.04
55317;BME280;41178;48.956;8.130;2023-03-14T06:14:27;97712.06;;;15.82;42.43
55317;BME280;41178;48.956;8.130;2023-03-14T06:19:29;97749.47;;;14.80;44.59
55317;BME280;41178;48.956;8.130;2023-03-14T06:24:30;97686.44;;;16.26;42.79
55317;BME280;41178;48.956;8.130;2023-03-14T06:29:32;97700.94;;;15.38;43.38
55317;BME280;41178;48.956;8.130;2023-03-14T06:34:34;97767.53;;;13.50;44.91
55317;BME280;41178;48.956;8.130;2023-03-14T06:39:35;97699.38;;;16.29;41.90
55317;BME280;41178;48.956;8.130;2023-03-14T06:44:37;97747.84;;;15.47;42.68
55317;BME280;41178;48.956;8.130;2023-03-14T06:49:38;97745.84;;;15.06;42.70
55317;BME280;41178;48.956;8.130;2023-03-14T06:54:40;97705.19;;;16.77;41.25
55317;BME280;41178;48.956;8.130;2023-03-14T06:59:42;97689.63;;;16.54;41.52
55317;BME280;41178;48.956;8.130;2023-03-14T07:04:43;97637.91;;;13.10;44.32
55317;BME280;41178;48.956;8.130;2023-03-14T07:09:45;97705.84;;;16.13;41.38
55317;BME280;41178;48.956;8.130;2023-03-14T07:14:47;97708.81;;;15.65;42.73
55317;BME280;41178;48.956;8.130;2023-03-14T07:19:48;97739.72;;;15.37;42.03
55317;BME280;41178;48.956;8.130;2023-03-14T07:24:50;97682.22;;;17.35;39.87
55317;BME280;41178;48.956;8.130;2023-03-14T07:29:51;97765.72;;;15.84;41.79
55317;BME280;41178;48.956;8.130;2023-03-14T07:34:53;97798.72;;;15.23;42.12
55317;BME280;41178;48.956;8.130;2023-03-14T07:39:54;97690.69;;;16.48;40.68
55317;BME280;41178;48.956;8.130;2023-03-14T07:44:56;97744.41;;;16.49;40.68
55317;BME280;41178;48.956;8.130;2023-03-14T07:49:58;97750.91;;;16.02;41.79
55317;BME280;41178;48.956;8.130;2023-03-14T07:54:59;97728.09;;;16.95;40.39
55317;BME280;41178;48.956;8.130;2023-03-14T08:00:01;97748.63;;;16.96;40.37
55317;BME280;41178;48.956;8.130;2023-03-14T08:05:04;97730.59;;;16.71;39.99
55317;BME280;41178;48.956;8.130;2023-03-14T08:10:07;97695.34;;;17.07;40.73
55317;BME280;41178;48.956;8.130;2023-03-14T08:15:09;97699.88;;;17.22;41.85
55317;BME280;41178;48.956;8.130;2023-03-14T08:20:11;97646.97;;;13.58;44.56
55317;BME280;41178;48.956;8.130;2023-03-14T08:25:15;97699.66;;;16.07;43.32
55317;BME280;41178;48.956;8.130;2023-03-14T08:30:17;97796.06;;;15.38;42.71
55317;BME280;41178;48.956;8.130;2023-03-14T08:35:20;97731.97;;;16.64;41.49
55317;BME280;41178;48.956;8.130;2023-03-14T08:40:21;97748.19;;;15.71;41.87
55317;BME280;41178;48.956;8.130;2023-03-14T08:45:23;97769.75;;;15.56;42.98
55317;BME280;41178;48.956;8.130;2023-03-14T08:50:26;97779.72;;;15.60;42.90
55317;BME280;41178;48.956;8.130;2023-03-14T08:55:28;97755.22;;;15.87;42.42
55317;BME280;41178;48.956;8.130;2023-03-14T09:00:29;97717.19;;;16.30;42.37
55317;BME280;41178;48.956;8.130;2023-03-14T09:05:33;97752.75;;;15.65;42.03
55317;BME280;41178;48.956;8.130;2023-03-14T09:10:36;97723.41;;;15.90;42.56
55317;BME280;41178;48.956;8.130;2023-03-14T09:15:39;97723.41;;;16.05;42.09
55317;BME280;41178;48.956;8.130;2023-03-14T09:20:43;97726.72;;;15.13;42.33
55317;BME280;41178;48.956;8.130;2023-03-14T09:25:45;97704.41;;;16.61;42.44
55317;BME280;41178;48.956;8.130;2023-03-14T09:30:46;97669.00;;;17.73;40.82
55317;BME280;41178;48.956;8.130;2023-03-14T09:35:48;97704.59;;;17.01;41.70
55317;BME280;41178;48.956;8.130;2023-03-14T09:40:50;97765.47;;;15.91;43.68
55317;BME280;41178;48.956;8.130;2023-03-14T09:45:52;97757.94;;;14.56;45.36
55317;BME280;41178;48.956;8.130;2023-03-14T09:50:56;97651.50;;;13.53;46.79
55317;BME280;41178;48.956;8.130;2023-03-14T09:55:59;97792.28;;;15.29;45.44
55317;BME280;41178;48.956;8.130;2023-03-14T10:01:01;97808.22;;;14.88;46.17
55317;BME280;41178;48.956;8.130;2023-03-14T10:06:11;97654.34;;;13.41;47.18
55317;BME280;41178;48.956;8.130;2023-03-14T10:11:17;97803.44;;;15.63;45.93
55317;BME280;41178;48.956;8.130;2023-03-14T10:16:28;97702.59;;;13.58;48.44
55317;BME280;41178;48.956;8.130;2023-03-14T10:21:31;97765.78;;;13.60;48.52
55317;BME280;41178;48.956;8.130;2023-03-14T10:26:37;97712.28;;;13.32;48.75
55317;BME280;41178;48.956;8.130;2023-03-14T10:32:02;97854.56;;;14.90;47.22
55317;BME280;41178;48.956;8.130;2023-03-14T10:37:18;97737.84;;;16.81;45.15
55317;BME280;41178;48.956;8.130;2023-03-14T10:42:27;97843.56;;;13.72;49.46
55317;BME280;41178;48.956;8.130;2023-03-14T10:47:33;97663.22;;;12.48;51.00
55317;BME280;41178;48.956;8.130;2023-03-14T10:52:35;97817.81;;;16.20;46.49
55317;BME280;41178;48.956;8.130;2023-03-14T10:58:03;97786.41;;;17.07;45.69
55317;BME280;41178;48.956;8.130;2023-03-14T11:11:51;97964.25;;;10.44;55.46
55317;BME280;41178;48.956;8.130;2023-03-14T11:17:00;97985.06;;;9.93;54.38
55317;BME280;41178;48.956;8.130;2023-03-14T11:22:21;97984.81;;;9.39;52.91
55317;BME280;41178;48.956;8.130;2023-03-14T11:38:36;98034.06;;;8.54;53.15
55317;BME280;41178;48.956;8.130;2023-03-14T11:43:40;98102.56;;;7.68;52.31
55317;BME280;41178;48.956;8.130;2023-03-14T12:04:49;98148.09;;;10.85;47.34
55317;BME280;41178;48.956;8.130;2023-03-14T12:09:52;98231.56;;;10.32;46.83
55317;BME280;41178;48.956;8.130;2023-03-14T12:14:58;98244.88;;;10.39;45.17
55317;BME280;41178;48.956;8.130;2023-03-14T12:20:12;98340.22;;;8.91;43.96
55317;BME280;41178;48.956;8.130;2023-03-14T12:25:22;98318.72;;;9.76;42.46
55317;BME280;41178;48.956;8.130;2023-03-14T12:30:28;98270.94;;;11.54;42.20
55317;BME280;41178;48.956;8.130;2023-03-14T12:35:47;98379.31;;;9.37;42.44
55317;BME280;41178;48.956;8.130;2023-03-14T12:41:17;98371.31;;;9.82;40.91
55317;BME280;41178;48.956;8.130;2023-03-14T12:46:24;98406.78;;;9.51;40.08
55317;BME280;41178;48.956;8.130;2023-03-14T12:51:33;98439.47;;;9.33;39.75
55317;BME280;41178;48.956;8.130;2023-03-14T13:02:10;98490.00;;;9.08;40.00
55317;BME280;41178;48.956;8.130;2023-03-14T13:17:51;98491.03;;;9.33;39.12
55317;BME280;41178;48.956;8.130;2023-03-14T13:22:54;98526.50;;;8.80;39.19
55317;BME280;41178;48.956;8.130;2023-03-14T13:27:55;98539.28;;;9.38;39.81
55317;BME280;41178;48.956;8.130;2023-03-14T13:33:03;98585.88;;;9.09;38.21
55317;BME280;41178;48.956;8.130;2023-03-14T13:38:05;98577.88;;;9.09;37.39
55317;BME280;41178;48.956;8.130;2023-03-14T13:43:17;98595.63;;;8.69;38.44
55317;BME280;41178;48.956;8.130;2023-03-14T13:48:21;98598.44;;;9.15;37.47
55317;BME280;41178;48.956;8.130;2023-03-14T13:53:24;98622.03;;;9.05;39.11
55317;BME280;41178;48.956;8.130;2023-03-14T13:58:29;98622.00;;;10.05;37.70
55317;BME280;41178;48.956;8.130;2023-03-14T14:03:33;98660.00;;;9.07;39.23
55317;BME280;41178;48.956;8.130;2023-03-14T14:08:40;98653.06;;;9.73;37.95
55317;BME280;41178;48.956;8.130;2023-03-14T14:13:42;98649.78;;;9.44;37.69
55317;BME280;41178;48.956;8.130;2023-03-14T14:18:44;98606.63;;;10.98;37.78
55317;BME280;41178;48.956;8.130;2023-03-14T14:23:46;98607.00;;;11.01;37.79
55317;BME280;41178;48.956;8.130;2023-03-14T14:28:58;98642.09;;;10.86;36.74
55317;BME280;41178;48.956;8.130;2023-03-14T14:34:03;98679.53;;;10.35;37.90
55317;BME280;41178;48.956;8.130;2023-03-14T14:49:33;98730.34;;;10.28;37.98
55317;BME280;41178;48.956;8.130;2023-03-14T14:54:46;98714.69;;;10.38;38.75
55317;BME280;41178;48.956;8.130;2023-03-14T14:59:49;98685.94;;;10.92;38.28
55317;BME280;41178;48.956;8.130;2023-03-14T15:04:54;98727.28;;;10.96;38.20
55317;BME280;41178;48.956;8.130;2023-03-14T15:09:55;98712.66;;;10.33;39.07
55317;BME280;41178;48.956;8.130;2023-03-14T15:14:57;98712.25;;;10.30;39.60
55317;BME280;41178;48.956;8.130;2023-03-14T15:19:59;98678.63;;;11.76;37.45
55317;BME280;41178;48.956;8.130;2023-03-14T15:25:00;98697.06;;;11.28;38.37
55317;BME280;41178;48.956;8.130;2023-03-14T15:30:02;98739.22;;;11.00;39.26
55317;BME280;41178;48.956;8.130;2023-03-14T15:35:04;98775.81;;;10.35;39.75
55317;BME280;41178;48.956;8.130;2023-03-14T15:40:06;98751.16;;;10.19;40.64
55317;BME280;41178;48.956;8.130;2023-03-14T15:45:14;98783.63;;;10.36;42.07
55317;BME280;41178;48.956;8.130;2023-03-14T15:50:16;98734.94;;;10.86;42.15
55317;BME280;41178;48.956;8.130;2023-03-14T15:55:20;98769.75;;;9.52;43.83
55317;BME280;41178;48.956;8.130;2023-03-14T16:00:22;98755.44;;;9.93;44.19
55317;BME280;41178;48.956;8.130;2023-03-14T16:05:24;98737.16;;;10.04;43.54
55317;BME280;41178;48.956;8.130;2023-03-14T16:10:25;98722.13;;;10.29;43.31
55317;BME280;41178;48.956;8.130;2023-03-14T16:15:30;98745.78;;;9.04;45.11
55317;BME280;41178;48.956;8.130;2023-03-14T16:20:32;98761.97;;;9.64;44.33
55317;BME280;41178;48.956;8.130;2023-03-14T16:25:48;98759.38;;;9.98;44.33
55317;BME280;41178;48.956;8.130;2023-03-14T16:30:50;98697.09;;;10.82;43.97
55317;BME280;41178;48.956;8.130;2023-03-14T16:35:57;98691.09;;;10.87;43.49
55317;BME280;41178;48.956;8.130;2023-03-14T16:41:03;98675.50;;;11.16;43.31
55317;BME280;41178;48.956;8.130;2023-03-14T16:46:07;98757.47;;;10.45;43.82
55317;BME280;41178;48.956;8.130;2023-03-14T16:51:12;98775.50;;;10.69;44.07
55317;BME280;41178;48.956;8.130;2023-03-14T16:56:15;98834.91;;;9.65;44.72
55317;BME280;41178;48.956;8.130;2023-03-14T17:01:17;98813.03;;;9.96;45.97
55317;BME280;41178;48.956;8.130;2023-03-14T17:06:24;98804.97;;;10.63;44.71
55317;BME280;41178;48.956;8.130;2023-03-14T17:11:26;98743.34;;;11.41;43.88
55317;BME280;41178;48.956;8.130;2023-03-14T17:16:28;98783.53;;;10.89;44.90
55317;BME280;41178;48.956;8.130;2023-03-14T17:21:30;98766.94;;;11.19;44.40
55317;BME280;41178;48.956;8.130;2023-03-14T17:26:32;98838.88;;;11.02;44.05
55317;BME280;41178;48.956;8.130;2023-03-14T17:31:34;98808.31;;;11.69;43.72
55317;BME280;41178;48.956;8.130;2023-03-14T17:36:36;98840.56;;;11.49;43.46
55317;BME280;41178;48.956;8.130;2023-03-14T17:41:37;98882.75;;;10.61;43.37
55317;BME280;41178;48.956;8.130;2023-03-14T17:46:39;98904.38;;;10.40;43.95
55317;BME280;41178;48.956;8.130;2023-03-14T17:51:41;98891.81;;;10.60;44.32
55317;BME280;41178;48.956;8.130;2023-03-14T17:56:42;98893.59;;;11.20;43.07
55317;BME280;41178;48.956;8.130;2023-03-14T18:01:44;98825.88;;;12.72;41.60
55317;BME280;41178;48.956;8.130;2023-03-14T18:06:46;98926.31;;;11.94;41.83
55317;BME280;41178;48.956;8.130;2023-03-14T18:11:47;98889.00;;;12.24;41.41
55317;BME280;41178;48.956;8.130;2023-03-14T18:16:59;98972.56;;;9.26;44.79
55317;BME280;41178;48.956;8.130;2023-03-14T18:22:01;98909.84;;;12.29;41.73
55317;BME280;41178;48.956;8.130;2023-03-14T18:27:03;98979.53;;;11.97;41.94
55317;BME280;41178;48.956;8.130;2023-03-14T18:32:05;98968.50;;;12.18;41.61
55317;BME280;41178;48.956;8.130;2023-03-14T18:37:07;98973.47;;;11.56;42.71
55317;BME280;41178;48.956;8.130;2023-03-14T18:42:08;98969.06;;;12.27;40.66
55317;BME280;41178;48.956;8.130;2023-03-14T18:47:10;99031.63;;;10.96;42.61
55317;BME280;41178;48.956;8.130;2023-03-14T18:52:12;99039.25;;;10.17;42.82
55317;BME280;41178;48.956;8.130;2023-03-14T18:57:14;99066.34;;;10.62;42.37
55317;BME280;41178;48.956;8.130;2023-03-14T19:02:15;99047.78;;;10.54;43.16
55317;BME280;41178;48.956;8.130;2023-03-14T19:07:20;99060.88;;;11.11;41.37
55317;BME280;41178;48.956;8.130;2023-03-14T19:12:23;99045.81;;;11.63;41.08
55317;BME280;41178;48.956;8.130;2023-03-14T19:17:25;99084.53;;;10.87;41.25
55317;BME280;41178;48.956;8.130;2023-03-14T19:22:27;99070.66;;;10.63;41.78
55317;BME280;41178;48.956;8.130;2023-03-14T19:27:28;99067.38;;;10.06;41.62
55317;BME280;41178;48.956;8.130;2023-03-14T19:32:30;99100.28;;;10.55;41.63
55317;BME280;41178;48.956;8.130;2023-03-14T19:37:32;99078.16;;;11.01;40.50
55317;BME280;41178;48.956;8.130;2023-03-14T19:42:33;99097.78;;;10.47;41.96
55317;BME280;41178;48.956;8.130;2023-03-14T19:47:35;99094.19;;;10.20;42.20
55317;BME280;41178;48.956;8.130;2023-03-14T19:52:37;99091.78;;;10.38;42.18
55317;BME280;41178;48.956;8.130;2023-03-14T19:57:44;99105.66;;;10.62;42.03
55317;BME280;41178;48.956;8.130;2023-03-14T20:02:46;99103.66;;;9.59;43.31
55317;BME280;41178;48.956;8.130;2023-03-14T20:07:49;99118.84;;;10.22;42.59
55317;BME280;41178;48.956;8.130;2023-03-14T20:12:52;99119.88;;;9.57;43.44
55317;BME280;41178;48.956;8.130;2023-03-14T20:17:53;99090.31;;;10.36;43.44
55317;BME280;41178;48.956;8.130;2023-03-14T20:22:55;99078.47;;;10.51;42.78
55317;BME280;41178;48.956;8.130;2023-03-14T20:27:57;99104.84;;;10.13;43.25
55317;BME280;41178;48.956;8.130;2023-03-14T20:32:59;99046.69;;;10.97;42.72
55317;BME280;41178;48.956;8.130;2023-03-14T20:38:04;99135.50;;;8.74;44.88
55317;BME280;41178;48.956;8.130;2023-03-14T20:43:06;99168.13;;;9.77;43.90
55317;BME280;41178;48.956;8.130;2023-03-14T20:48:08;99157.78;;;10.31;43.66
55317;BME280;41178;48.956;8.130;2023-03-14T20:53:09;99183.66;;;9.46;44.50
55317;BME280;41178;48.956;8.130;2023-03-14T20:58:11;99169.13;;;9.27;44.98
55317;BME280;41178;48.956;8.130;2023-03-14T21:03:17;99120.00;;;11.22;42.89
55317;BME280;41178;48.956;8.130;2023-03-14T21:08:21;99185.44;;;10.10;44.04
55317;BME280;41178;48.956;8.130;2023-03-14T21:13:23;99214.91;;;8.57;45.67
55317;BME280;41178;48.956;8.130;2023-03-14T21:18:25;99218.75;;;5.82;50.53
55317;BME280;41178;48.956;8.130;2023-03-14T21:23:27;99258.53;;;5.91;49.69
55317;BME280;41178;48.956;8.130;2023-03-14T21:28:29;99283.34;;;5.24;50.43
55317;BME280;41178;48.956;8.130;2023-03-14T21:33:31;99268.34;;;7.18;47.52
55317;BME280;41178;48.956;8.130;2023-03-14T21:38:32;99270.53;;;6.67;48.00
55317;BME280;41178;48.956;8.130;2023-03-14T21:43:34;99284.44;;;5.13;49.51
55317;BME280;41178;48.956;8.130;2023-03-14T21:48:36;99243.09;;;6.67;48.04
55317;BME280;41178;48.956;8.130;2023-03-14T21:53:37;99250.72;;;6.05;49.26
55317;BME280;41178;48.956;8.130;2023-03-14T21:58:39;99291.41;;;5.81;49.06
55317;BME280;41178;48.956;8.130;2023-03-14T22:03:41;99334.47;;;5.42;49.49
55317;BME280;41178;48.956;8.130;2023-03-14T22:08:46;99293.66;;;6.58;48.44
55317;BME280;41178;48.956;8.130;2023-03-14T22:13:47;99372.13;;;5.11;48.28
55317;BME280;41178;48.956;8.130;2023-03-14T22:18:49;99258.66;;;9.66;43.77
55317;BME280;41178;48.956;8.130;2023-03-14T22:23:51;99412.88;;;8.44;43.45
55317;BME280;41178;48.956;8.130;2023-03-14T22:28:52;99369.97;;;10.66;41.03
55317;BME280;41178;48.956;8.130;2023-03-14T22:33:54;99360.50;;;12.29;38.76
55317;BME280;41178;48.956;8.130;2023-03-14T22:38:56;99420.03;;;11.01;40.37
55317;BME280;41178;48.956;8.130;2023-03-14T22:43:59;99438.66;;;11.16;39.85
55317;BME280;41178;48.956;8.130;2023-03-14T22:49:00;99470.16;;;11.84;38.95
55317;BME280;41178;48.956;8.130;2023-03-14T22:54:02;99482.44;;;9.64;40.53
55317;BME280;41178;48.956;8.130;2023-03-14T22:59:04;99467.06;;;11.87;39.90
55317;BME280;41178;48.956;8.130;2023-03-14T23:04:05;99523.03;;;12.03;38.75
55317;BME280;41178;48.956;8.130;2023-03-14T23:09:07;99509.16;;;11.93;39.40
55317;BME280;41178;48.956;8.130;2023-03-14T23:14:09;99503.13;;;12.39;38.57
55317;BME280;41178;48.956;8.130;2023-03-14T23:19:10;99530.75;;;12.33;38.44
55317;BME280;41178;48.956;8.130;2023-03-14T23:24:12;99571.94;;;12.05;38.32
55317;BME280;41178;48.956;8.130;2023-03-14T23:29:14;99558.88;;;12.44;38.04
55317;BME280;41178;48.956;8.130;2023-03-14T23:34:15;99589.47;;;11.16;39.68
55317;BME280;41178;48.956;8.130;2023-03-14T23:39:17;99599.28;;;7.59;42.65
55317;BME280;41178;48.956;8.130;2023-03-14T23:44:18;99574.22;;;11.17;39.29
55317;BME280;41178;48.956;8.130;2023-03-14T23:49:20;99608.38;;;10.72;40.08
55317;BME280;41178;48.956;8.130;2023-03-14T23:54:22;99588.06;;;11.20;39.57
55317;BME280;41178;48.956;8.130;2023-03-14T23:59:23;99589.47;;;11.16;40.00
